Time;durP1;ratioP1;P1;durP2;ratioP2;P2;SDS_P1;SDS_P2;PMS_P1;PMS_P2;Temp;Humidity;BMP_temperature;BMP_pressure;BME280_temperature;BME280_humidity;BME280_pressure;Samples;Min_cycle;Max_cycle;Signal;HPM_P1;HPM_P2
2023/09/25 00:04:46;;;;;;;5.88;3.70;;;;;;;;;;10493199;28;20063;-85
2023/09/25 00:09:47;;;;;;;4.97;3.10;;;;;;;;;;10491031;28;20039;-85
2023/09/25 00:14:48;;;;;;;3.83;3.38;;;;;;;;;;10493506;28;20088;-84
2023/09/25 00:19:50;;;;;;;4.55;3.40;;;;;;;;;;10486610;28;20032;-87
2023/09/25 00:24:51;;;;;;;9.50;3.10;;;;;;;;;;10491424;28;20039;-85
2023/09/25 00:29:51;;;;;;;7.65;3.55;;;;;;;;;;10490901;28;20040;-85
2023/09/25 00:34:53;;;;;;;6.65;3.55;;;;;;;;;;10492030;28;20029;-84
2023/09/25 00:39:55;;;;;;;5.15;3.20;;;;;;;;;;10491306;28;20553;-84
2023/09/25 00:44:56;;;;;;;6.88;3.05;;;;;;;;;;10493342;28;20063;-85
2023/09/25 00:49:57;;;;;;;4.22;3.00;;;;;;;;;;10490644;28;20039;-85
2023/09/25 00:54:59;;;;;;;4.57;3.40;;;;;;;;;;10495459;28;20448;-88
2023/09/25 01:00:00;;;;;;;5.35;3.50;;;;;;;;;;10472469;28;20033;-85
2023/09/25 01:05:03;;;;;;;4.50;2.92;;;;;;;;;;10494366;28;20515;-85
2023/09/25 01:10:14;;;;;;;4.03;3.15;;;;;;;;;;10490238;28;20044;-88
2023/09/25 01:15:15;;;;;;;4.63;2.80;;;;;;;;;;10469433;28;20484;-84
2023/09/25 01:20:17;;;;;;;4.28;3.17;;;;;;;;;;10471131;28;20435;-86
2023/09/25 01:25:19;;;;;;;4.78;2.78;;;;;;;;;;10489296;28;20971;-85
2023/09/25 01:30:20;;;;;;;4.90;3.10;;;;;;;;;;10488569;28;20028;-85
2023/09/25 01:35:24;;;;;;;3.72;2.85;;;;;;;;;;10487271;28;20024;-84
2023/09/25 01:40:25;;;;;;;4.45;3.05;;;;;;;;;;10488111;28;20800;-85
2023/09/25 01:45:26;;;;;;;5.57;3.42;;;;;;;;;;10490833;28;20020;-87
2023/09/25 01:50:28;;;;;;;3.15;2.60;;;;;;;;;;10486274;28;20158;-84
2023/09/25 01:55:31;;;;;;;7.18;2.95;;;;;;;;;;10487400;28;20145;-84
2023/09/25 02:00:32;;;;;;;3.22;2.75;;;;;;;;;;10494709;23;20053;-85
2023/09/25 02:05:33;;;;;;;4.85;3.22;;;;;;;;;;10484506;28;20420;-86
2023/09/25 02:10:35;;;;;;;6.13;3.08;;;;;;;;;;10486983;28;20065;-86
2023/09/25 02:15:36;;;;;;;5.20;3.33;;;;;;;;;;10488744;28;20037;-85
2023/09/25 02:20:37;;;;;;;5.18;2.80;;;;;;;;;;10475302;28;20037;-86
2023/09/25 02:25:38;;;;;;;7.00;3.60;;;;;;;;;;10482752;28;20040;-86
2023/09/25 02:30:39;;;;;;;3.50;3.00;;;;;;;;;;10485449;28;20471;-84
2023/09/25 02:35:40;;;;;;;4.05;3.10;;;;;;;;;;10486101;28;20037;-87
2023/09/25 02:40:41;;;;;;;6.72;3.67;;;;;;;;;;10485622;28;20085;-85
2023/09/25 02:45:43;;;;;;;3.70;3.08;;;;;;;;;;10483171;28;20024;-84
2023/09/25 02:50:44;;;;;;;7.93;3.70;;;;;;;;;;10484808;28;20036;-84
2023/09/25 02:55:49;;;;;;;4.65;3.35;;;;;;;;;;10466785;28;20116;-85
2023/09/25 03:00:50;;;;;;;4.72;3.28;;;;;;;;;;10484519;28;20040;-84
2023/09/25 03:05:51;;;;;;;4.45;3.53;;;;;;;;;;10484504;28;20772;-85
2023/09/25 03:10:52;;;;;;;3.97;3.45;;;;;;;;;;10465655;28;20074;-84
2023/09/25 03:15:54;;;;;;;7.68;3.40;;;;;;;;;;10452994;28;20047;-85
2023/09/25 03:20:55;;;;;;;6.07;3.42;;;;;;;;;;10462855;28;20039;-87
2023/09/25 03:25:56;;;;;;;6.93;4.00;;;;;;;;;;10465971;28;20029;-84
2023/09/25 03:30:57;;;;;;;4.97;3.90;;;;;;;;;;10483585;28;20036;-86
2023/09/25 03:35:58;;;;;;;6.35;4.03;;;;;;;;;;10484209;28;20044;-85
2023/09/25 03:40:59;;;;;;;4.03;3.40;;;;;;;;;;10484648;28;20452;-86
2023/09/25 03:46:00;;;;;;;4.40;3.80;;;;;;;;;;10483418;28;20077;-85
2023/09/25 03:51:01;;;;;;;5.53;3.92;;;;;;;;;;10464716;28;20485;-85
2023/09/25 03:56:02;;;;;;;7.85;4.22;;;;;;;;;;10465435;28;20036;-84
2023/09/25 04:01:03;;;;;;;6.65;4.10;;;;;;;;;;10464153;28;20055;-83
2023/09/25 04:06:05;;;;;;;5.93;4.38;;;;;;;;;;10483100;28;20091;-86
2023/09/25 04:11:07;;;;;;;5.47;3.90;;;;;;;;;;10487666;28;20471;-86
2023/09/25 04:16:12;;;;;;;7.07;4.32;;;;;;;;;;10487326;28;20033;-87
2023/09/25 04:21:17;;;;;;;5.23;4.70;;;;;;;;;;10487023;28;20052;-84
2023/09/25 04:26:18;;;;;;;7.53;5.10;;;;;;;;;;10489939;28;20259;-82
2023/09/25 04:31:20;;;;;;;8.35;4.45;;;;;;;;;;10487257;28;20483;-86
2023/09/25 04:36:23;;;;;;;7.07;5.18;;;;;;;;;;10470573;28;20036;-86
2023/09/25 04:41:24;;;;;;;6.22;4.80;;;;;;;;;;10484382;28;20048;-85
2023/09/25 04:46:25;;;;;;;7.95;5.03;;;;;;;;;;10482096;28;20208;-84
2023/09/25 04:51:27;;;;;;;6.20;5.47;;;;;;;;;;10470365;28;20044;-83
2023/09/25 04:56:28;;;;;;;8.15;5.07;;;;;;;;;;10489807;28;20027;-84
2023/09/25 05:01:29;;;;;;;8.15;5.38;;;;;;;;;;10490838;28;20095;-84
2023/09/25 05:06:30;;;;;;;6.68;5.07;;;;;;;;;;10487137;28;20401;-83
2023/09/25 05:11:31;;;;;;;8.88;6.03;;;;;;;;;;10481821;28;20423;-84
2023/09/25 05:16:32;;;;;;;8.60;5.95;;;;;;;;;;10477496;28;20032;-84
2023/09/25 05:21:34;;;;;;;10.00;6.32;;;;;;;;;;10476759;28;20036;-84
2023/09/25 05:26:36;;;;;;;12.45;7.18;;;;;;;;;;10496570;28;20059;-83
2023/09/25 05:31:59;;;;;;;9.57;7.05;;;;;;;;;;10486536;28;20143;-85
2023/09/25 05:37:00;;;;;;;9.68;6.88;;;;;;;;;;10486687;28;20048;-87
2023/09/25 05:42:01;;;;;;;10.60;7.55;;;;;;;;;;10473618;28;20353;-87
2023/09/25 05:47:02;;;;;;;13.00;8.35;;;;;;;;;;10467020;28;20037;-86
2023/09/25 05:52:03;;;;;;;12.00;8.40;;;;;;;;;;10477995;28;20034;-84
2023/09/25 05:57:08;;;;;;;10.68;7.40;;;;;;;;;;10471304;28;20032;-83
2023/09/25 06:02:09;;;;;;;11.87;7.40;;;;;;;;;;10465549;28;20495;-86
2023/09/25 06:07:10;;;;;;;14.32;8.82;;;;;;;;;;10483811;28;20147;-84
2023/09/25 06:12:13;;;;;;;13.90;9.07;;;;;;;;;;10482273;28;20507;-86
2023/09/25 06:17:15;;;;;;;16.25;10.88;;;;;;;;;;10482323;28;20036;-84
2023/09/25 06:22:16;;;;;;;15.25;10.15;;;;;;;;;;10485239;28;20108;-85
2023/09/25 06:27:17;;;;;;;17.45;12.68;;;;;;;;;;10446107;28;20495;-83
2023/09/25 06:32:20;;;;;;;13.25;9.85;;;;;;;;;;10480089;28;20035;-83
2023/09/25 06:37:21;;;;;;;16.88;12.02;;;;;;;;;;10460253;28;20035;-83
2023/09/25 06:42:22;;;;;;;14.48;10.05;;;;;;;;;;10456758;28;20032;-84
2023/09/25 06:47:23;;;;;;;13.43;9.80;;;;;;;;;;10473534;28;20181;-84
2023/09/25 06:52:24;;;;;;;13.77;9.98;;;;;;;;;;10479627;28;20388;-85
2023/09/25 06:57:25;;;;;;;14.48;11.80;;;;;;;;;;10484185;28;20028;-84
2023/09/25 07:02:26;;;;;;;13.98;10.45;;;;;;;;;;10462235;28;20448;-84
2023/09/25 07:07:27;;;;;;;13.70;10.93;;;;;;;;;;10478984;28;20040;-85
2023/09/25 07:12:28;;;;;;;15.00;10.48;;;;;;;;;;10482561;28;20428;-85
2023/09/25 07:17:30;;;;;;;16.50;11.60;;;;;;;;;;10478538;28;20032;-85
2023/09/25 07:22:31;;;;;;;15.88;11.90;;;;;;;;;;10465025;28;20035;-83
2023/09/25 07:27:35;;;;;;;14.18;11.35;;;;;;;;;;10480935;28;20506;-84
2023/09/25 07:32:38;;;;;;;13.48;10.65;;;;;;;;;;10480480;28;20037;-86
2023/09/25 07:37:41;;;;;;;16.48;12.13;;;;;;;;;;10472261;28;20020;-85
2023/09/25 07:42:42;;;;;;;14.82;11.30;;;;;;;;;;10478415;28;20037;-83
2023/09/25 07:47:43;;;;;;;18.15;12.45;;;;;;;;;;10465224;28;20063;-84
2023/09/25 07:52:44;;;;;;;14.88;10.82;;;;;;;;;;10478531;28;20032;-84
2023/09/25 07:57:55;;;;;;;15.95;10.85;;;;;;;;;;10481788;28;20024;-85
2023/09/25 08:02:56;;;;;;;14.80;11.45;;;;;;;;;;10470940;28;20139;-86
2023/09/25 08:07:57;;;;;;;17.55;11.93;;;;;;;;;;10482122;28;20049;-85
2023/09/25 08:12:58;;;;;;;16.90;12.25;;;;;;;;;;10490930;28;20427;-84
2023/09/25 08:17:59;;;;;;;15.00;10.60;;;;;;;;;;10480203;28;20032;-86
2023/09/25 08:23:00;;;;;;;14.07;11.15;;;;;;;;;;10487147;28;20040;-85
2023/09/25 08:28:01;;;;;;;12.32;9.88;;;;;;;;;;10471655;28;20033;-86
2023/09/25 08:33:02;;;;;;;11.57;9.73;;;;;;;;;;10477259;28;20025;-87
2023/09/25 08:38:03;;;;;;;15.52;11.52;;;;;;;;;;10459473;28;20656;-84
2023/09/25 08:43:05;;;;;;;16.05;11.80;;;;;;;;;;10485677;28;20123;-85
2023/09/25 08:48:10;;;;;;;14.60;10.48;;;;;;;;;;10486703;28;20036;-85
2023/09/25 08:53:11;;;;;;;13.77;10.05;;;;;;;;;;10466319;28;20044;-85
2023/09/25 08:58:12;;;;;;;12.57;10.80;;;;;;;;;;10473993;28;20044;-85
2023/09/25 09:03:13;;;;;;;18.10;12.48;;;;;;;;;;10463516;28;20045;-84
2023/09/25 09:08:17;;;;;;;14.50;11.52;;;;;;;;;;10481161;28;20041;-84
2023/09/25 09:13:22;;;;;;;13.88;11.15;;;;;;;;;;10457846;28;20033;-88
2023/09/25 09:18:25;;;;;;;15.65;10.98;;;;;;;;;;10479750;28;20107;-84
2023/09/25 09:23:42;;;;;;;11.68;9.60;;;;;;;;;;10486658;28;20082;-85
2023/09/25 09:28:44;;;;;;;13.90;10.05;;;;;;;;;;10486370;28;20104;-83
2023/09/25 09:33:45;;;;;;;12.10;8.90;;;;;;;;;;10485679;28;20067;-84
2023/09/25 09:38:47;;;;;;;10.15;8.82;;;;;;;;;;10485245;28;20060;-84
2023/09/25 09:43:48;;;;;;;11.20;8.90;;;;;;;;;;10468879;28;20441;-83
2023/09/25 09:48:49;;;;;;;9.32;8.27;;;;;;;;;;10484970;28;20579;-85
2023/09/25 09:53:52;;;;;;;8.73;7.18;;;;;;;;;;10483358;28;20044;-86
2023/09/25 09:58:55;;;;;;;8.65;7.03;;;;;;;;;;10483828;28;20043;-85
2023/09/25 10:03:56;;;;;;;13.27;8.40;;;;;;;;;;10484100;28;20067;-87
2023/09/25 10:09:01;;;;;;;9.20;7.80;;;;;;;;;;10467506;28;20446;-83
2023/09/25 10:14:06;;;;;;;8.07;7.28;;;;;;;;;;10486540;28;20488;-83
2023/09/25 10:19:19;;;;;;;7.47;6.78;;;;;;;;;;10485701;28;20026;-84
2023/09/25 10:24:26;;;;;;;10.40;7.43;;;;;;;;;;10468119;28;20033;-84
2023/09/25 10:29:27;;;;;;;11.15;7.53;;;;;;;;;;10465441;28;20041;-84
2023/09/25 10:34:29;;;;;;;7.22;6.50;;;;;;;;;;10485776;28;20392;-84
2023/09/25 10:39:31;;;;;;;10.32;7.18;;;;;;;;;;10466802;28;20049;-86
2023/09/25 10:44:32;;;;;;;11.88;7.13;;;;;;;;;;10484988;28;20063;-84
2023/09/25 10:49:36;;;;;;;10.77;7.32;;;;;;;;;;10484573;28;20056;-84
2023/09/25 10:54:38;;;;;;;10.98;7.85;;;;;;;;;;10485035;28;20036;-84
2023/09/25 10:59:39;;;;;;;9.75;7.72;;;;;;;;;;10484640;28;20024;-85
2023/09/25 11:04:40;;;;;;;14.13;9.02;;;;;;;;;;10478003;28;20059;-84
2023/09/25 11:09:41;;;;;;;13.35;8.38;;;;;;;;;;10481734;28;20551;-84
2023/09/25 11:14:42;;;;;;;15.38;8.60;;;;;;;;;;10466415;28;20046;-85
2023/09/25 11:19:46;;;;;;;11.50;7.60;;;;;;;;;;10483693;28;20039;-84
2023/09/25 11:24:53;;;;;;;10.93;7.75;;;;;;;;;;10493344;28;20116;-84
2023/09/25 11:29:55;;;;;;;14.35;8.82;;;;;;;;;;10492496;28;20041;-84
2023/09/25 11:34:56;;;;;;;14.07;8.20;;;;;;;;;;10474382;28;20037;-84
2023/09/25 11:39:57;;;;;;;9.48;7.57;;;;;;;;;;10492139;28;20040;-84
2023/09/25 11:44:58;;;;;;;11.13;8.52;;;;;;;;;;10479501;28;20025;-85
2023/09/25 11:50:00;;;;;;;12.90;7.80;;;;;;;;;;10490892;28;20550;-84
2023/09/25 11:55:01;;;;;;;11.43;8.13;;;;;;;;;;10492170;28;20398;-84
2023/09/25 12:00:05;;;;;;;10.85;7.95;;;;;;;;;;10471111;28;20059;-83
2023/09/25 12:05:06;;;;;;;12.32;8.38;;;;;;;;;;10490293;28;20049;-85
2023/09/25 12:10:07;;;;;;;14.80;10.23;;;;;;;;;;10477333;28;20040;-84
2023/09/25 12:15:16;;;;;;;15.45;9.55;;;;;;;;;;10489341;28;20032;-85
2023/09/25 12:20:19;;;;;;;15.35;8.60;;;;;;;;;;10491235;28;20530;-84
2023/09/25 12:25:20;;;;;;;12.68;8.20;;;;;;;;;;10489656;28;20024;-85
2023/09/25 12:30:30;;;;;;;16.60;9.05;;;;;;;;;;10481943;28;20571;-85
2023/09/25 12:35:31;;;;;;;12.13;7.80;;;;;;;;;;10460688;28;20040;-84
2023/09/25 12:40:32;;;;;;;11.38;7.35;;;;;;;;;;10485699;28;20041;-86
2023/09/25 12:45:33;;;;;;;8.90;6.38;;;;;;;;;;10487048;28;20029;-88
2023/09/25 12:50:34;;;;;;;8.00;5.60;;;;;;;;;;10467306;28;20033;-84
2023/09/25 12:55:35;;;;;;;8.45;6.38;;;;;;;;;;10468775;28;20040;-85
2023/09/25 13:00:37;;;;;;;10.18;6.43;;;;;;;;;;10478208;28;20033;-85
2023/09/25 13:05:38;;;;;;;15.23;8.70;;;;;;;;;;10489322;28;20122;-86
2023/09/25 13:10:39;;;;;;;14.95;9.32;;;;;;;;;;10485269;28;20131;-84
2023/09/25 13:15:40;;;;;;;10.23;6.90;;;;;;;;;;10490676;23;20658;-87
2023/09/25 13:20:40;;;;;;;9.05;6.68;;;;;;;;;;10440848;23;20049;-86
2023/09/25 13:25:42;;;;;;;8.35;6.40;;;;;;;;;;10430679;28;20033;-86
2023/09/25 13:30:43;;;;;;;10.63;6.60;;;;;;;;;;10448182;28;20033;-86
2023/09/25 13:35:44;;;;;;;11.68;7.43;;;;;;;;;;10429991;28;20501;-86
2023/09/25 13:40:51;;;;;;;9.70;6.93;;;;;;;;;;10445578;28;20029;-85
2023/09/25 13:45:52;;;;;;;11.43;8.80;;;;;;;;;;10429527;28;20021;-85
2023/09/25 13:50:55;;;;;;;20.27;14.00;;;;;;;;;;10447728;28;20033;-86
2023/09/25 13:55:56;;;;;;;10.70;7.57;;;;;;;;;;10447660;28;20709;-85
2023/09/25 14:00:59;;;;;;;11.80;8.10;;;;;;;;;;10447625;28;20090;-86
2023/09/25 14:06:03;;;;;;;12.73;8.30;;;;;;;;;;10444993;28;20021;-86
2023/09/25 14:11:05;;;;;;;13.67;8.00;;;;;;;;;;10430088;28;20728;-86
2023/09/25 14:16:08;;;;;;;14.38;10.30;;;;;;;;;;10441112;28;20025;-85
2023/09/25 14:21:09;;;;;;;18.38;10.60;;;;;;;;;;10439952;28;20059;-85
2023/09/25 14:26:10;;;;;;;15.73;10.00;;;;;;;;;;10444206;28;20025;-86
2023/09/25 14:31:11;;;;;;;14.02;8.60;;;;;;;;;;10443646;28;20072;-84
2023/09/25 14:36:12;;;;;;;12.93;9.43;;;;;;;;;;10446453;28;20033;-84
2023/09/25 14:41:13;;;;;;;12.23;8.55;;;;;;;;;;10457206;28;20442;-86
2023/09/25 14:46:14;;;;;;;18.20;10.18;;;;;;;;;;10444295;28;20033;-86
2023/09/25 14:51:15;;;;;;;12.15;8.40;;;;;;;;;;10443642;28;20140;-86
2023/09/25 14:56:16;;;;;;;12.25;8.05;;;;;;;;;;10440164;28;20021;-84
2023/09/25 15:01:17;;;;;;;14.52;8.65;;;;;;;;;;10446574;28;20032;-86
2023/09/25 15:06:19;;;;;;;13.48;8.75;;;;;;;;;;10443033;28;20029;-86
2023/09/25 15:11:20;;;;;;;11.82;8.20;;;;;;;;;;10441436;28;20049;-85
2023/09/25 15:16:21;;;;;;;12.43;7.57;;;;;;;;;;10419703;28;20033;-86
2023/09/25 15:21:22;;;;;;;8.38;6.72;;;;;;;;;;10429313;28;20064;-84
2023/09/25 15:26:24;;;;;;;10.68;7.47;;;;;;;;;;10408924;28;20040;-83
2023/09/25 15:31:25;;;;;;;12.15;7.80;;;;;;;;;;10417205;28;20497;-84
2023/09/25 15:36:26;;;;;;;12.68;7.90;;;;;;;;;;10412046;28;20029;-85
2023/09/25 15:41:27;;;;;;;14.57;9.02;;;;;;;;;;10421290;28;20439;-85
2023/09/25 15:46:28;;;;;;;9.88;7.80;;;;;;;;;;10442333;28;20064;-85
2023/09/25 15:51:29;;;;;;;16.42;8.30;;;;;;;;;;10438936;28;20068;-84
2023/09/25 15:56:30;;;;;;;13.68;8.75;;;;;;;;;;10443682;28;20392;-85
2023/09/25 16:01:31;;;;;;;9.90;7.65;;;;;;;;;;10433892;28;20123;-83
2023/09/25 16:06:32;;;;;;;12.57;8.85;;;;;;;;;;10427021;28;20025;-85
2023/09/25 16:11:39;;;;;;;10.50;7.65;;;;;;;;;;10445831;28;20444;-87
2023/09/25 16:16:41;;;;;;;11.93;7.57;;;;;;;;;;10430906;28;20041;-85
2023/09/25 16:21:42;;;;;;;10.65;7.53;;;;;;;;;;10428720;28;20059;-81
2023/09/25 16:26:43;;;;;;;8.70;7.22;;;;;;;;;;10442266;28;20063;-84
2023/09/25 16:31:47;;;;;;;9.60;6.90;;;;;;;;;;10429119;28;20698;-84
2023/09/25 16:36:48;;;;;;;9.57;6.40;;;;;;;;;;10464336;23;20133;-85
2023/09/25 16:41:49;;;;;;;13.00;7.57;;;;;;;;;;10472301;28;20713;-83
2023/09/25 16:46:50;;;;;;;9.05;7.25;;;;;;;;;;10489353;28;20024;-85
2023/09/25 16:51:51;;;;;;;10.07;8.00;;;;;;;;;;10500903;28;20446;-84
2023/09/25 16:56:52;;;;;;;9.18;7.10;;;;;;;;;;10486004;28;20365;-84
2023/09/25 17:01:53;;;;;;;14.52;9.90;;;;;;;;;;10471126;28;20028;-84
2023/09/25 17:06:54;;;;;;;10.50;7.55;;;;;;;;;;10482583;28;20024;-85
2023/09/25 17:11:55;;;;;;;8.85;7.15;;;;;;;;;;10486626;28;20032;-84
2023/09/25 17:16:56;;;;;;;11.45;8.00;;;;;;;;;;10476620;28;20112;-83
2023/09/25 17:21:57;;;;;;;10.80;8.30;;;;;;;;;;10468063;28;20025;-84
2023/09/25 17:26:58;;;;;;;12.70;8.60;;;;;;;;;;10434054;28;20033;-82
2023/09/25 17:31:59;;;;;;;15.60;9.95;;;;;;;;;;10447771;28;20541;-82
2023/09/25 17:37:03;;;;;;;12.65;8.88;;;;;;;;;;10422166;28;20130;-84
2023/09/25 17:42:10;;;;;;;17.00;9.45;;;;;;;;;;10459024;28;20025;-83
2023/09/25 17:47:11;;;;;;;11.10;8.68;;;;;;;;;;10445880;28;20083;-83
2023/09/25 17:52:12;;;;;;;20.15;10.93;;;;;;;;;;10446034;28;20044;-83
2023/09/25 17:57:13;;;;;;;14.63;8.90;;;;;;;;;;10446654;28;20037;-84
2023/09/25 18:02:14;;;;;;;14.63;9.57;;;;;;;;;;10450202;28;20423;-83
2023/09/25 18:07:15;;;;;;;19.08;11.20;;;;;;;;;;10452758;28;20036;-84
2023/09/25 18:12:16;;;;;;;17.17;11.50;;;;;;;;;;10440668;28;20041;-84
2023/09/25 18:17:17;;;;;;;21.02;12.07;;;;;;;;;;10445961;28;20043;-81
2023/09/25 18:22:18;;;;;;;15.07;10.35;;;;;;;;;;10444898;28;20039;-83
2023/09/25 18:27:21;;;;;;;22.40;13.30;;;;;;;;;;10437524;28;20415;-84
2023/09/25 18:32:22;;;;;;;21.58;11.10;;;;;;;;;;10449209;28;20471;-83
2023/09/25 18:37:23;;;;;;;18.70;11.75;;;;;;;;;;10440363;28;20059;-84
2023/09/25 18:42:24;;;;;;;18.52;11.02;;;;;;;;;;10445188;28;20448;-83
2023/09/25 18:47:25;;;;;;;18.73;10.45;;;;;;;;;;10444817;28;20032;-82
2023/09/25 18:52:27;;;;;;;16.00;9.98;;;;;;;;;;10452597;28;20550;-83
2023/09/25 18:57:28;;;;;;;21.65;11.57;;;;;;;;;;10443307;28;20320;-83
2023/09/25 19:02:29;;;;;;;15.18;9.77;;;;;;;;;;10429264;28;20572;-82
2023/09/25 19:07:31;;;;;;;24.95;11.05;;;;;;;;;;10404856;28;20025;-83
2023/09/25 19:12:33;;;;;;;13.45;8.63;;;;;;;;;;10449218;28;20029;-83
2023/09/25 19:17:34;;;;;;;16.23;10.40;;;;;;;;;;10443830;28;20127;-83
2023/09/25 19:22:35;;;;;;;15.80;10.07;;;;;;;;;;10453378;28;20029;-85
2023/09/25 19:27:38;;;;;;;17.35;10.18;;;;;;;;;;10460431;28;20494;-84
2023/09/25 19:32:39;;;;;;;16.27;9.45;;;;;;;;;;10425704;28;20444;-83
2023/09/25 19:37:40;;;;;;;15.02;9.18;;;;;;;;;;10463253;28;20449;-83
2023/09/25 19:42:41;;;;;;;14.98;10.15;;;;;;;;;;10460560;28;20116;-83
2023/09/25 19:47:42;;;;;;;13.95;9.35;;;;;;;;;;10450945;28;20380;-83
2023/09/25 19:52:43;;;;;;;16.48;10.52;;;;;;;;;;10463176;28;20029;-83
2023/09/25 19:57:44;;;;;;;15.73;9.98;;;;;;;;;;10451046;28;20481;-83
2023/09/25 20:02:45;;;;;;;17.25;11.20;;;;;;;;;;10441195;28;20024;-85
2023/09/25 20:07:46;;;;;;;17.02;9.70;;;;;;;;;;10451192;28;20421;-84
2023/09/25 20:12:47;;;;;;;18.77;12.50;;;;;;;;;;10451562;28;20037;-83
2023/09/25 20:17:48;;;;;;;15.23;10.02;;;;;;;;;;10437367;28;20028;-83
2023/09/25 20:22:52;;;;;;;13.77;8.63;;;;;;;;;;10448681;28;20033;-82
2023/09/25 20:27:54;;;;;;;18.20;11.70;;;;;;;;;;10449990;28;20068;-84
2023/09/25 20:32:55;;;;;;;18.58;12.85;;;;;;;;;;10449442;28;20056;-84
2023/09/25 20:37:58;;;;;;;22.15;13.98;;;;;;;;;;10448755;28;20053;-83
2023/09/25 20:42:59;;;;;;;22.75;14.50;;;;;;;;;;10451341;28;20033;-84
2023/09/25 20:48:00;;;;;;;23.23;14.00;;;;;;;;;;10443902;28;20040;-83
2023/09/25 20:53:04;;;;;;;23.33;15.55;;;;;;;;;;10447993;28;20094;-84
2023/09/25 20:58:05;;;;;;;27.60;14.88;;;;;;;;;;10449536;28;20033;-83
2023/09/25 21:03:06;;;;;;;21.75;14.45;;;;;;;;;;10458965;28;20029;-84
2023/09/25 21:08:07;;;;;;;29.15;16.17;;;;;;;;;;10458043;28;20036;-83
2023/09/25 21:13:08;;;;;;;24.00;15.13;;;;;;;;;;10447922;28;20036;-84
2023/09/25 21:18:09;;;;;;;27.88;17.70;;;;;;;;;;10455358;28;20404;-84
2023/09/25 21:23:10;;;;;;;36.72;19.42;;;;;;;;;;10454540;28;20029;-83
2023/09/25 21:28:11;;;;;;;27.17;16.40;;;;;;;;;;10429537;28;20403;-83
2023/09/25 21:33:12;;;;;;;32.20;20.15;;;;;;;;;;10431547;28;20048;-84
2023/09/25 21:38:15;;;;;;;39.47;25.13;;;;;;;;;;10428348;28;20052;-85
2023/09/25 21:43:16;;;;;;;47.05;27.83;;;;;;;;;;10448167;28;21189;-84
2023/09/25 21:48:24;;;;;;;46.28;28.42;;;;;;;;;;10446028;28;20041;-83
2023/09/25 21:53:25;;;;;;;44.22;27.30;;;;;;;;;;10445741;28;20117;-83
2023/09/25 21:58:26;;;;;;;44.72;25.13;;;;;;;;;;10446603;28;20025;-83
2023/09/25 22:03:27;;;;;;;43.45;26.05;;;;;;;;;;10454899;28;20035;-83
2023/09/25 22:08:28;;;;;;;56.30;34.00;;;;;;;;;;10447235;28;20033;-83
2023/09/25 22:13:30;;;;;;;63.25;36.58;;;;;;;;;;10454517;28;20119;-83
2023/09/25 22:18:31;;;;;;;47.22;27.30;;;;;;;;;;10444480;28;20033;-83
2023/09/25 22:23:38;;;;;;;39.63;23.08;;;;;;;;;;10444926;28;20025;-83
2023/09/25 22:28:39;;;;;;;32.83;20.23;;;;;;;;;;10444877;28;20143;-83
2023/09/25 22:33:42;;;;;;;32.90;19.80;;;;;;;;;;10449180;28;20994;-85
2023/09/25 22:38:43;;;;;;;36.78;20.80;;;;;;;;;;10435142;28;20056;-83
2023/09/25 22:43:44;;;;;;;21.38;14.60;;;;;;;;;;10436077;28;20029;-83
2023/09/25 22:48:45;;;;;;;22.73;13.45;;;;;;;;;;10444584;28;20067;-83
2023/09/25 22:53:46;;;;;;;20.52;13.70;;;;;;;;;;10443910;28;20064;-83
2023/09/25 22:58:47;;;;;;;31.77;16.23;;;;;;;;;;10432089;28;20029;-83
2023/09/25 23:03:48;;;;;;;26.00;16.27;;;;;;;;;;10443818;28;20747;-83
2023/09/25 23:08:49;;;;;;;31.77;17.35;;;;;;;;;;10443683;28;20217;-84
2023/09/25 23:13:50;;;;;;;33.85;19.35;;;;;;;;;;10444075;28;20033;-83
2023/09/25 23:18:51;;;;;;;49.65;26.17;;;;;;;;;;10442853;28;20032;-84
2023/09/25 23:23:52;;;;;;;49.85;24.70;;;;;;;;;;10442768;28;20419;-83
2023/09/25 23:28:53;;;;;;;46.72;25.52;;;;;;;;;;10426472;28;20481;-83
2023/09/25 23:33:54;;;;;;;29.45;19.38;;;;;;;;;;10443753;28;20036;-84
2023/09/25 23:38:55;;;;;;;40.15;20.75;;;;;;;;;;10442645;28;20068;-83
2023/09/25 23:43:56;;;;;;;46.33;25.50;;;;;;;;;;10445383;28;20123;-83
2023/09/25 23:48:58;;;;;;;19.48;13.90;;;;;;;;;;10442435;28;20052;-83
2023/09/25 23:53:59;;;;;;;36.58;22.50;;;;;;;;;;10443446;28;20029;-84
2023/09/25 23:59:00;;;;;;;42.28;22.83;;;;;;;;;;10443164;28;20128;-85
